Time;durP1;ratioP1;P1;durP2;ratioP2;P2;SDS_P1;SDS_P2;PMS_P1;PMS_P2;Temp;Humidity;BMP_temperature;BMP_pressure;BME280_temperature;BME280_humidity;BME280_pressure;Samples;Min_cycle;Max_cycle;Signal;HPM_P1;HPM_P2
2021/08/14 00:02:18;;;;;;;13.05;7.75;;;;;;;;;;6255515;23;20170;-91
2021/08/14 00:05:23;;;;;;;14.85;8.55;;;;;;;;;;6256597;23;20166;-92
2021/08/14 00:08:28;;;;;;;19.80;9.20;;;;;;;;;;6255347;23;20163;-91
2021/08/14 00:11:33;;;;;;;16.27;9.25;;;;;;;;;;6255473;23;20206;-91
2021/08/14 00:14:38;;;;;;;14.65;9.13;;;;;;;;;;6255859;23;20191;-92
2021/08/14 00:17:44;;;;;;;13.57;8.65;;;;;;;;;;6255253;23;20166;-90
2021/08/14 00:20:49;;;;;;;20.55;9.18;;;;;;;;;;6256819;23;20195;-90
2021/08/14 00:23:55;;;;;;;18.00;8.85;;;;;;;;;;6256982;22;20221;-90
2021/08/14 00:26:59;;;;;;;15.85;9.05;;;;;;;;;;6257655;22;20166;-91
2021/08/14 00:30:04;;;;;;;19.25;10.13;;;;;;;;;;6256451;23;20293;-91
2021/08/14 00:33:11;;;;;;;19.38;10.85;;;;;;;;;;6256307;23;20213;-89
2021/08/14 00:36:16;;;;;;;23.00;13.07;;;;;;;;;;6256187;23;20159;-90
2021/08/14 00:39:22;;;;;;;23.30;14.43;;;;;;;;;;6258639;23;20155;-89
2021/08/14 00:42:27;;;;;;;26.58;15.18;;;;;;;;;;6260476;23;20171;-90
2021/08/14 00:45:32;;;;;;;26.40;14.50;;;;;;;;;;6258613;23;20174;-91
2021/08/14 00:48:38;;;;;;;31.27;15.82;;;;;;;;;;6258045;23;20215;-91
2021/08/14 00:51:44;;;;;;;32.65;15.95;;;;;;;;;;6257466;23;20186;-92
2021/08/14 00:54:48;;;;;;;28.35;15.75;;;;;;;;;;6258115;23;20186;-91
2021/08/14 00:57:53;;;;;;;22.23;14.30;;;;;;;;;;6258339;23;20210;-91
2021/08/14 01:00:58;;;;;;;23.08;14.27;;;;;;;;;;6258422;23;20560;-91
2021/08/14 01:04:05;;;;;;;20.10;13.85;;;;;;;;;;6259509;23;20214;-91
2021/08/14 01:07:09;;;;;;;21.02;13.10;;;;;;;;;;6257925;23;20166;-89
2021/08/14 01:10:14;;;;;;;18.58;10.20;;;;;;;;;;6258717;22;20170;-91
2021/08/14 01:13:19;;;;;;;13.02;8.93;;;;;;;;;;6259037;23;20202;-91
2021/08/14 01:16:24;;;;;;;13.93;8.88;;;;;;;;;;6258687;22;20163;-91
2021/08/14 01:19:30;;;;;;;14.75;9.15;;;;;;;;;;6259138;23;20162;-91
2021/08/14 01:22:36;;;;;;;15.10;9.30;;;;;;;;;;6258997;23;20183;-91
2021/08/14 01:25:41;;;;;;;13.75;8.95;;;;;;;;;;6257515;23;20171;-90
2021/08/14 01:28:50;;;;;;;16.20;9.80;;;;;;;;;;6257583;22;20169;-91
2021/08/14 01:31:56;;;;;;;16.92;10.43;;;;;;;;;;6258422;22;20190;-92
2021/08/14 01:35:01;;;;;;;13.43;8.68;;;;;;;;;;6242402;23;20182;-91
2021/08/14 01:38:06;;;;;;;15.52;9.00;;;;;;;;;;6258521;22;20166;-91
2021/08/14 01:41:11;;;;;;;13.75;8.40;;;;;;;;;;6256551;22;20190;-91
2021/08/14 01:44:17;;;;;;;19.88;11.57;;;;;;;;;;6257448;23;20166;-90
2021/08/14 01:47:22;;;;;;;19.45;10.73;;;;;;;;;;6258113;22;20229;-91
2021/08/14 01:50:27;;;;;;;21.65;11.27;;;;;;;;;;6256573;22;20574;-91
2021/08/14 01:53:32;;;;;;;30.65;14.93;;;;;;;;;;6257985;22;20193;-91
2021/08/14 01:56:37;;;;;;;25.95;14.90;;;;;;;;;;6257144;23;20191;-90
2021/08/14 01:59:44;;;;;;;27.08;14.98;;;;;;;;;;6259387;23;20187;-91
2021/08/14 02:02:49;;;;;;;25.63;15.10;;;;;;;;;;6257642;23;20189;-91
2021/08/14 02:05:54;;;;;;;30.73;14.80;;;;;;;;;;6257370;23;20147;-91
2021/08/14 02:09:00;;;;;;;29.85;14.52;;;;;;;;;;6258891;23;20154;-91
2021/08/14 02:12:05;;;;;;;22.40;14.27;;;;;;;;;;6258356;23;20509;-91
2021/08/14 02:15:12;;;;;;;22.65;13.80;;;;;;;;;;6257274;23;20166;-90
2021/08/14 02:18:17;;;;;;;26.70;12.80;;;;;;;;;;6258349;22;20178;-91
2021/08/14 02:21:22;;;;;;;20.58;12.30;;;;;;;;;;6258113;23;20173;-92
2021/08/14 02:24:28;;;;;;;20.95;12.73;;;;;;;;;;6257735;23;20174;-91
2021/08/14 02:27:33;;;;;;;19.27;12.88;;;;;;;;;;6258920;22;20174;-91
2021/08/14 02:30:39;;;;;;;24.17;13.93;;;;;;;;;;6256429;23;20304;-90
2021/08/14 02:33:44;;;;;;;24.42;14.07;;;;;;;;;;6259302;22;20209;-91
2021/08/14 02:36:49;;;;;;;22.55;14.77;;;;;;;;;;6257875;23;20165;-91
2021/08/14 02:39:54;;;;;;;26.05;13.25;;;;;;;;;;6258835;22;20142;-90
2021/08/14 02:42:59;;;;;;;43.13;15.13;;;;;;;;;;6257197;23;20182;-91
2021/08/14 02:46:06;;;;;;;33.85;15.20;;;;;;;;;;6256319;23;20154;-91
2021/08/14 02:49:11;;;;;;;25.52;14.35;;;;;;;;;;6259051;23;20183;-90
2021/08/14 02:52:16;;;;;;;25.23;14.80;;;;;;;;;;6257536;22;20273;-91
2021/08/14 02:55:21;;;;;;;23.65;13.93;;;;;;;;;;6258256;22;20684;-90
2021/08/14 02:58:27;;;;;;;27.35;14.73;;;;;;;;;;6257286;22;20230;-90
2021/08/14 03:01:34;;;;;;;26.67;14.20;;;;;;;;;;6257068;22;20166;-91
2021/08/14 03:04:39;;;;;;;24.25;13.60;;;;;;;;;;6258082;22;20149;-91
2021/08/14 03:07:44;;;;;;;21.70;13.05;;;;;;;;;;6257770;23;20621;-91
2021/08/14 03:10:48;;;;;;;24.10;14.50;;;;;;;;;;6255993;23;20161;-91
2021/08/14 03:13:53;;;;;;;29.00;15.25;;;;;;;;;;6257525;23;20197;-91
2021/08/14 03:16:59;;;;;;;25.40;15.15;;;;;;;;;;6256742;23;20170;-91
2021/08/14 03:20:06;;;;;;;21.52;14.07;;;;;;;;;;6255007;23;20298;-91
2021/08/14 03:23:11;;;;;;;24.50;13.65;;;;;;;;;;6257260;22;20150;-91
2021/08/14 03:26:16;;;;;;;24.20;13.88;;;;;;;;;;6257230;23;20170;-91
2021/08/14 03:29:21;;;;;;;21.52;14.15;;;;;;;;;;6257792;23;20235;-90
2021/08/14 03:32:28;;;;;;;20.98;12.73;;;;;;;;;;6256983;22;20170;-90
2021/08/14 03:35:33;;;;;;;33.85;14.73;;;;;;;;;;6256425;23;20249;-91
2021/08/14 03:38:38;;;;;;;54.28;16.33;;;;;;;;;;6257527;23;20150;-91
2021/08/14 03:41:43;;;;;;;50.83;16.15;;;;;;;;;;6256848;22;20240;-91
2021/08/14 03:44:47;;;;;;;63.58;17.40;;;;;;;;;;6256877;22;20154;-92
2021/08/14 03:47:54;;;;;;;46.28;17.80;;;;;;;;;;6257344;23;20166;-92
2021/08/14 03:50:59;;;;;;;39.88;18.17;;;;;;;;;;6256798;22;20521;-92
2021/08/14 03:54:05;;;;;;;37.08;16.88;;;;;;;;;;6256417;23;20165;-90
2021/08/14 03:57:12;;;;;;;26.27;15.82;;;;;;;;;;6256313;23;20162;-90
2021/08/14 04:00:19;;;;;;;26.23;15.63;;;;;;;;;;6256328;23;20190;-91
2021/08/14 04:03:29;;;;;;;26.30;14.90;;;;;;;;;;6258752;22;20198;-91
2021/08/14 04:06:34;;;;;;;20.00;12.20;;;;;;;;;;6257839;23;20246;-91
2021/08/14 04:09:40;;;;;;;18.38;10.75;;;;;;;;;;6256091;22;20223;-91
2021/08/14 04:12:44;;;;;;;20.67;11.43;;;;;;;;;;6257219;22;20166;-91
2021/08/14 04:15:50;;;;;;;12.93;8.35;;;;;;;;;;6258423;22;20195;-91
2021/08/14 04:18:56;;;;;;;15.00;8.85;;;;;;;;;;6258839;22;20161;-91
2021/08/14 04:22:03;;;;;;;18.55;10.30;;;;;;;;;;6259629;22;20153;-90
2021/08/14 04:25:09;;;;;;;18.92;10.88;;;;;;;;;;6258817;22;20169;-91
2021/08/14 04:28:15;;;;;;;18.27;10.95;;;;;;;;;;6260000;22;20191;-91
2021/08/14 04:31:20;;;;;;;15.73;10.88;;;;;;;;;;6259645;22;20167;-91
2021/08/14 04:34:26;;;;;;;18.08;11.75;;;;;;;;;;6259568;22;20182;-91
2021/08/14 04:37:31;;;;;;;18.52;11.82;;;;;;;;;;6259396;22;20162;-91
2021/08/14 04:40:38;;;;;;;15.55;10.40;;;;;;;;;;6259961;22;20220;-90
2021/08/14 04:43:43;;;;;;;14.95;10.85;;;;;;;;;;6258903;22;20193;-90
2021/08/14 04:46:48;;;;;;;16.25;10.07;;;;;;;;;;6258631;23;20154;-90
2021/08/14 04:49:55;;;;;;;19.08;10.93;;;;;;;;;;6260179;23;20247;-92
2021/08/14 04:53:00;;;;;;;17.73;11.45;;;;;;;;;;6257877;23;20167;-91
2021/08/14 04:56:05;;;;;;;16.88;10.38;;;;;;;;;;6258066;23;20170;-91
2021/08/14 04:59:11;;;;;;;19.40;10.70;;;;;;;;;;6259058;22;20310;-90
2021/08/14 05:02:16;;;;;;;15.48;10.65;;;;;;;;;;6257685;22;20249;-91
2021/08/14 05:05:22;;;;;;;15.95;10.75;;;;;;;;;;6259872;23;20267;-90
2021/08/14 05:08:27;;;;;;;16.88;10.25;;;;;;;;;;6258485;23;20166;-91
2021/08/14 05:11:32;;;;;;;16.77;10.00;;;;;;;;;;6260257;23;20170;-91
2021/08/14 05:14:38;;;;;;;16.83;10.02;;;;;;;;;;6259552;23;20182;-91
2021/08/14 05:17:43;;;;;;;17.88;10.98;;;;;;;;;;6260355;22;20215;-91
2021/08/14 05:20:50;;;;;;;16.63;10.77;;;;;;;;;;6261374;23;20170;-92
2021/08/14 05:23:54;;;;;;;17.70;11.85;;;;;;;;;;6259642;22;20195;-90
2021/08/14 05:26:59;;;;;;;18.30;11.95;;;;;;;;;;6258667;23;20171;-91
2021/08/14 05:30:05;;;;;;;20.08;11.55;;;;;;;;;;6261304;22;20166;-91
2021/08/14 05:33:10;;;;;;;17.77;11.60;;;;;;;;;;6259031;23;20217;-92
2021/08/14 05:36:16;;;;;;;23.63;12.48;;;;;;;;;;6259819;22;20154;-90
2021/08/14 05:39:21;;;;;;;17.08;11.57;;;;;;;;;;6260201;22;20166;-90
2021/08/14 05:42:26;;;;;;;17.95;10.80;;;;;;;;;;6260492;22;20167;-90
2021/08/14 05:45:31;;;;;;;15.27;11.18;;;;;;;;;;6259449;22;20169;-92
2021/08/14 05:48:37;;;;;;;14.27;10.43;;;;;;;;;;6258686;23;20254;-91
2021/08/14 05:51:43;;;;;;;17.25;11.00;;;;;;;;;;6257898;22;20150;-91
2021/08/14 05:54:50;;;;;;;23.60;12.02;;;;;;;;;;6260195;22;20230;-91
2021/08/14 05:57:56;;;;;;;16.65;10.90;;;;;;;;;;6261681;23;20652;-91
2021/08/14 06:01:02;;;;;;;16.05;10.77;;;;;;;;;;6259769;22;20644;-91
2021/08/14 06:04:07;;;;;;;15.60;10.27;;;;;;;;;;6258821;22;20189;-90
2021/08/14 06:07:14;;;;;;;22.63;10.02;;;;;;;;;;6260420;23;20146;-92
2021/08/14 06:10:23;;;;;;;18.23;10.63;;;;;;;;;;6257999;22;20154;-91
2021/08/14 06:13:28;;;;;;;17.40;11.02;;;;;;;;;;6259731;22;20223;-91
2021/08/14 06:16:33;;;;;;;14.60;10.63;;;;;;;;;;6260481;22;20174;-92
2021/08/14 06:19:38;;;;;;;20.70;10.13;;;;;;;;;;6258346;23;20170;-91
2021/08/14 06:22:45;;;;;;;16.95;10.75;;;;;;;;;;6260039;23;20552;-91
2021/08/14 06:25:50;;;;;;;19.42;9.88;;;;;;;;;;6259750;23;20174;-92
2021/08/14 06:28:55;;;;;;;15.10;10.98;;;;;;;;;;6257250;22;20170;-91
2021/08/14 06:32:01;;;;;;;16.27;11.02;;;;;;;;;;6258718;23;20154;-91
2021/08/14 06:35:06;;;;;;;21.65;13.82;;;;;;;;;;6259580;22;20166;-90
2021/08/14 06:38:14;;;;;;;25.15;15.95;;;;;;;;;;6258323;23;20230;-90
2021/08/14 06:41:19;;;;;;;28.23;17.52;;;;;;;;;;6259381;22;20170;-91
2021/08/14 06:44:29;;;;;;;30.40;17.50;;;;;;;;;;6259041;23;20285;-91
2021/08/14 06:47:35;;;;;;;31.73;16.48;;;;;;;;;;6256518;23;20221;-91
2021/08/14 06:51:08;;;;;;;28.38;17.73;;;;;;;;;;6258009;23;20150;-92
2021/08/14 06:54:17;;;;;;;23.75;16.75;;;;;;;;;;6259432;23;20178;-91
2021/08/14 06:57:22;;;;;;;28.52;17.30;;;;;;;;;;6260419;22;20186;-91
2021/08/14 07:00:27;;;;;;;29.30;16.98;;;;;;;;;;6258262;23;20514;-91
2021/08/14 07:03:33;;;;;;;27.67;15.77;;;;;;;;;;6257718;23;20629;-92
2021/08/14 07:06:38;;;;;;;24.98;15.35;;;;;;;;;;6257750;22;20170;-88
2021/08/14 07:09:44;;;;;;;24.02;14.82;;;;;;;;;;6258525;23;20167;-90
2021/08/14 07:12:49;;;;;;;21.95;13.30;;;;;;;;;;6258383;22;20171;-91
2021/08/14 07:15:55;;;;;;;18.27;11.73;;;;;;;;;;6256820;23;20186;-92
2021/08/14 07:19:00;;;;;;;20.98;9.50;;;;;;;;;;6256302;23;20274;-90
2021/08/14 07:22:05;;;;;;;19.90;9.07;;;;;;;;;;6255338;23;20170;-89
2021/08/14 07:25:13;;;;;;;22.58;9.13;;;;;;;;;;6256707;23;20221;-91
2021/08/14 07:28:18;;;;;;;16.42;8.15;;;;;;;;;;6258523;22;20166;-91
2021/08/14 07:31:23;;;;;;;13.57;8.18;;;;;;;;;;6258156;22;20237;-91
2021/08/14 07:34:30;;;;;;;18.75;7.88;;;;;;;;;;6257516;22;20170;-92
2021/08/14 07:37:35;;;;;;;19.02;7.88;;;;;;;;;;6257128;23;20162;-91
2021/08/14 07:40:42;;;;;;;15.77;7.90;;;;;;;;;;6257023;23;20163;-91
2021/08/14 07:43:47;;;;;;;13.93;7.90;;;;;;;;;;6258130;23;20169;-92
2021/08/14 07:46:53;;;;;;;12.70;7.45;;;;;;;;;;6258911;22;20158;-92
2021/08/14 07:49:58;;;;;;;22.77;8.18;;;;;;;;;;6263826;22;20166;-90
2021/08/14 07:53:04;;;;;;;18.83;8.30;;;;;;;;;;6262308;22;20182;-92
2021/08/14 07:56:10;;;;;;;17.83;7.32;;;;;;;;;;6256912;22;20166;-91
2021/08/14 07:59:15;;;;;;;13.50;7.22;;;;;;;;;;6258470;22;20189;-92
2021/08/14 08:02:20;;;;;;;14.55;7.75;;;;;;;;;;6260397;23;20167;-91
2021/08/14 08:05:29;;;;;;;14.52;7.22;;;;;;;;;;6262166;22;20270;-89
2021/08/14 08:08:35;;;;;;;20.55;9.18;;;;;;;;;;6259325;23;20178;-91
2021/08/14 08:11:42;;;;;;;16.88;7.93;;;;;;;;;;6258458;22;20182;-92
2021/08/14 08:14:47;;;;;;;15.93;8.20;;;;;;;;;;6258416;22;20171;-92
2021/08/14 08:17:52;;;;;;;17.02;8.85;;;;;;;;;;6260374;22;20166;-93
2021/08/14 08:20:57;;;;;;;17.60;8.27;;;;;;;;;;6258204;22;20486;-92
2021/08/14 08:24:02;;;;;;;18.90;7.78;;;;;;;;;;6257115;22;20193;-90
2021/08/14 08:27:09;;;;;;;17.40;8.35;;;;;;;;;;6259427;22;20150;-90
2021/08/14 08:30:15;;;;;;;15.60;7.63;;;;;;;;;;6259362;22;20258;-91
2021/08/14 08:33:20;;;;;;;17.48;8.35;;;;;;;;;;6257432;22;20167;-91
2021/08/14 08:36:25;;;;;;;15.43;8.38;;;;;;;;;;6259741;22;20162;-91
2021/08/14 08:39:34;;;;;;;19.20;8.85;;;;;;;;;;6230094;23;20168;-91
2021/08/14 08:42:43;;;;;;;17.63;8.73;;;;;;;;;;6227575;23;20170;-90
2021/08/14 08:45:48;;;;;;;15.80;9.45;;;;;;;;;;6227066;23;20194;-92
2021/08/14 08:48:54;;;;;;;19.42;9.90;;;;;;;;;;6227982;23;20166;-92
2021/08/14 08:51:59;;;;;;;18.90;9.40;;;;;;;;;;6228168;23;20213;-92
2021/08/14 08:55:05;;;;;;;20.88;9.05;;;;;;;;;;6228391;23;20166;-92
2021/08/14 09:01:34;;;;;;;22.35;11.30;;;;;;;;;;6230078;23;20167;-92
2021/08/14 09:04:38;;;;;;;17.50;10.05;;;;;;;;;;6230454;23;20508;-91
2021/08/14 09:07:44;;;;;;;14.75;9.70;;;;;;;;;;6234588;23;20163;-92
2021/08/14 09:10:50;;;;;;;17.52;9.32;;;;;;;;;;6231091;23;20154;-91
2021/08/14 09:14:05;;;;;;;14.80;9.23;;;;;;;;;;6231203;23;20175;-91
2021/08/14 09:17:12;;;;;;;14.80;8.77;;;;;;;;;;6227803;23;20163;-92
2021/08/14 09:20:18;;;;;;;16.23;8.88;;;;;;;;;;6228172;23;20165;-91
2021/08/14 09:23:24;;;;;;;16.23;9.27;;;;;;;;;;6229499;23;20217;-93
2021/08/14 09:26:29;;;;;;;13.73;8.57;;;;;;;;;;6225972;23;20170;-91
2021/08/14 09:29:37;;;;;;;15.50;8.48;;;;;;;;;;6227442;23;20169;-91
2021/08/14 09:32:44;;;;;;;13.30;8.18;;;;;;;;;;6227982;23;20166;-92
2021/08/14 09:35:57;;;;;;;13.15;8.02;;;;;;;;;;6228294;23;20194;-90
2021/08/14 09:39:05;;;;;;;14.63;8.90;;;;;;;;;;6229421;23;20197;-90
2021/08/14 09:42:11;;;;;;;16.15;8.63;;;;;;;;;;6227649;23;20207;-90
2021/08/14 09:45:19;;;;;;;13.30;8.82;;;;;;;;;;6229518;23;20167;-91
2021/08/14 09:48:26;;;;;;;10.93;8.00;;;;;;;;;;6227488;23;20178;-89
2021/08/14 09:51:31;;;;;;;18.42;8.63;;;;;;;;;;6228169;23;20173;-90
2021/08/14 09:54:40;;;;;;;14.82;8.38;;;;;;;;;;6228770;23;20305;-93
2021/08/14 09:57:59;;;;;;;15.20;8.25;;;;;;;;;;6228985;23;20163;-90
2021/08/14 10:01:07;;;;;;;15.40;8.75;;;;;;;;;;6229417;23;20186;-91
2021/08/14 10:04:12;;;;;;;15.00;7.97;;;;;;;;;;6229043;23;20191;-92
2021/08/14 10:07:17;;;;;;;13.65;8.20;;;;;;;;;;6230517;23;20166;-91
2021/08/14 10:10:23;;;;;;;11.88;8.30;;;;;;;;;;6228876;23;20170;-92
2021/08/14 10:13:29;;;;;;;14.15;8.52;;;;;;;;;;6227924;23;20218;-90
2021/08/14 10:16:37;;;;;;;12.93;8.73;;;;;;;;;;6228358;23;20158;-90
2021/08/14 10:19:42;;;;;;;16.98;8.88;;;;;;;;;;6228855;23;20166;-90
2021/08/14 10:22:47;;;;;;;11.65;8.05;;;;;;;;;;6228316;23;20171;-90
2021/08/14 10:25:58;;;;;;;13.50;7.93;;;;;;;;;;6228408;23;20182;-90
2021/08/14 10:29:03;;;;;;;13.43;8.18;;;;;;;;;;6228150;23;20171;-92
2021/08/14 10:32:10;;;;;;;15.57;8.80;;;;;;;;;;6226822;23;20154;-90
2021/08/14 10:35:32;;;;;;;14.77;8.80;;;;;;;;;;6228358;23;20194;-90
2021/08/14 10:38:39;;;;;;;14.73;7.85;;;;;;;;;;6226583;23;20166;-90
2021/08/14 10:41:45;;;;;;;19.98;8.02;;;;;;;;;;6228792;23;20213;-91
2021/08/14 10:44:52;;;;;;;11.93;7.88;;;;;;;;;;6227237;23;20170;-92
2021/08/14 10:48:02;;;;;;;12.90;7.72;;;;;;;;;;6227119;23;20213;-92
2021/08/14 10:51:07;;;;;;;14.65;7.85;;;;;;;;;;6227872;23;20142;-91
2021/08/14 10:54:12;;;;;;;15.77;8.00;;;;;;;;;;6227734;23;20215;-91
2021/08/14 10:57:37;;;;;;;14.88;8.45;;;;;;;;;;6228248;23;20220;-90
2021/08/14 11:36:06;;;;;;;11.63;7.53;;;;;;;;;;6194465;22;20203;-91
2021/08/14 11:39:12;;;;;;;14.05;7.60;;;;;;;;;;6229570;23;20171;-91
2021/08/14 11:42:20;;;;;;;12.52;7.60;;;;;;;;;;6228140;23;20175;-90
2021/08/14 11:45:25;;;;;;;15.23;7.95;;;;;;;;;;6226961;23;20167;-91
2021/08/14 11:48:38;;;;;;;13.57;7.07;;;;;;;;;;6226704;23;20167;-93
2021/08/14 11:51:45;;;;;;;12.45;7.18;;;;;;;;;;6227612;23;20202;-91
2021/08/14 11:54:55;;;;;;;13.00;7.82;;;;;;;;;;6227124;23;20656;-89
2021/08/14 11:58:00;;;;;;;13.57;7.07;;;;;;;;;;6225725;23;20182;-91
2021/08/14 12:01:06;;;;;;;16.58;7.45;;;;;;;;;;6225572;23;20162;-91
2021/08/14 12:04:11;;;;;;;17.60;7.53;;;;;;;;;;6225842;23;20171;-91
2021/08/14 12:07:18;;;;;;;14.38;7.40;;;;;;;;;;6225093;23;20162;-92
2021/08/14 12:10:24;;;;;;;15.45;8.00;;;;;;;;;;6226702;23;20245;-93
2021/08/14 12:13:29;;;;;;;13.60;7.38;;;;;;;;;;6224020;23;20277;-92
2021/08/14 12:16:39;;;;;;;11.43;7.00;;;;;;;;;;6227076;23;20532;-90
2021/08/14 12:19:49;;;;;;;12.85;7.25;;;;;;;;;;6225469;23;20179;-92
2021/08/14 12:22:55;;;;;;;9.93;6.93;;;;;;;;;;6225173;23;20253;-91
2021/08/14 12:26:01;;;;;;;12.32;7.10;;;;;;;;;;6225635;23;20209;-90
2021/08/14 12:29:06;;;;;;;14.35;8.18;;;;;;;;;;6222411;23;20186;-92
2021/08/14 12:32:12;;;;;;;12.35;6.55;;;;;;;;;;6224031;23;20174;-91
2021/08/14 12:35:17;;;;;;;12.25;6.80;;;;;;;;;;6223094;23;20189;-90
2021/08/14 12:38:24;;;;;;;15.43;7.28;;;;;;;;;;6226993;23;20154;-93
2021/08/14 12:41:35;;;;;;;11.70;6.80;;;;;;;;;;6226052;23;20593;-91
2021/08/14 12:44:41;;;;;;;15.10;7.00;;;;;;;;;;6225457;23;20178;-91
2021/08/14 12:47:47;;;;;;;14.55;6.72;;;;;;;;;;6225758;23;20170;-92
2021/08/14 12:50:52;;;;;;;11.73;6.60;;;;;;;;;;6224802;23;20263;-91
2021/08/14 12:54:09;;;;;;;13.50;6.80;;;;;;;;;;6225193;23;20166;-92
2021/08/14 12:57:15;;;;;;;15.57;7.22;;;;;;;;;;6224363;23;20175;-91
2021/08/14 13:00:20;;;;;;;11.02;6.63;;;;;;;;;;6225157;23;20154;-92
2021/08/14 13:03:26;;;;;;;11.80;6.05;;;;;;;;;;6225621;23;20194;-90
2021/08/14 13:06:31;;;;;;;12.77;5.97;;;;;;;;;;6225075;23;20178;-91
2021/08/14 13:09:37;;;;;;;12.07;6.10;;;;;;;;;;6226263;23;20166;-91
2021/08/14 13:12:53;;;;;;;11.50;6.20;;;;;;;;;;6223226;23;20167;-92
2021/08/14 13:15:58;;;;;;;9.00;6.03;;;;;;;;;;6226385;23;20214;-90
2021/08/14 13:19:02;;;;;;;11.23;6.28;;;;;;;;;;6225565;23;20536;-91
2021/08/14 13:22:08;;;;;;;11.10;6.25;;;;;;;;;;6225669;23;20313;-91
2021/08/14 13:25:15;;;;;;;14.90;7.15;;;;;;;;;;6229072;23;20262;-91
2021/08/14 13:28:20;;;;;;;11.73;6.45;;;;;;;;;;6225592;23;20166;-91
2021/08/14 13:31:25;;;;;;;9.70;6.47;;;;;;;;;;6227021;23;20197;-89
2021/08/14 13:34:30;;;;;;;14.77;6.32;;;;;;;;;;6226955;23;20166;-91
2021/08/14 13:37:35;;;;;;;11.38;6.43;;;;;;;;;;6227979;23;20166;-91
2021/08/14 13:40:42;;;;;;;12.90;6.50;;;;;;;;;;6225126;23;20218;-91
2021/08/14 13:43:46;;;;;;;14.75;6.55;;;;;;;;;;6226366;23;20171;-92
2021/08/14 13:46:51;;;;;;;10.73;6.00;;;;;;;;;;6226186;23;20167;-91
2021/08/14 13:49:56;;;;;;;15.18;6.25;;;;;;;;;;6226003;23;20194;-91
2021/08/14 13:53:01;;;;;;;11.77;6.22;;;;;;;;;;6224487;23;20170;-92
2021/08/14 13:56:08;;;;;;;10.57;5.85;;;;;;;;;;6226273;23;20190;-91
2021/08/14 13:59:13;;;;;;;14.38;6.85;;;;;;;;;;6225075;23;20253;-90
2021/08/14 14:02:18;;;;;;;9.80;6.38;;;;;;;;;;6227406;23;20221;-90
2021/08/14 14:05:23;;;;;;;8.70;6.43;;;;;;;;;;6224708;23;20282;-91
2021/08/14 14:08:28;;;;;;;11.05;6.40;;;;;;;;;;6226597;23;20170;-91
2021/08/14 14:11:35;;;;;;;9.73;6.45;;;;;;;;;;6225345;23;20162;-92
2021/08/14 14:14:49;;;;;;;12.70;6.53;;;;;;;;;;6226252;23;20211;-92
2021/08/14 14:17:54;;;;;;;13.85;6.20;;;;;;;;;;6225423;23;20214;-92
2021/08/14 14:20:59;;;;;;;12.00;6.95;;;;;;;;;;6223619;23;20182;-92
2021/08/14 14:24:07;;;;;;;10.30;6.40;;;;;;;;;;6223105;23;20162;-91
2021/08/14 14:27:21;;;;;;;16.33;7.57;;;;;;;;;;6223831;23;20167;-91
2021/08/14 14:30:38;;;;;;;10.18;6.15;;;;;;;;;;6225576;23;20266;-91
2021/08/14 14:33:44;;;;;;;13.43;6.13;;;;;;;;;;6225488;23;20170;-91
2021/08/14 14:36:49;;;;;;;13.02;6.38;;;;;;;;;;6226434;23;20214;-91
2021/08/14 14:39:54;;;;;;;10.35;5.82;;;;;;;;;;6225338;23;20166;-92
2021/08/14 14:43:00;;;;;;;14.02;6.30;;;;;;;;;;6224553;23;20170;-91
2021/08/14 14:46:05;;;;;;;15.63;6.13;;;;;;;;;;6224943;23;20315;-91
2021/08/14 14:49:10;;;;;;;11.75;6.55;;;;;;;;;;6223979;23;20195;-92
2021/08/14 14:52:15;;;;;;;11.45;6.18;;;;;;;;;;6223883;23;20507;-92
2021/08/14 14:55:20;;;;;;;12.20;6.03;;;;;;;;;;6225429;23;20657;-91
2021/08/14 14:58:27;;;;;;;10.20;6.07;;;;;;;;;;6224121;23;20174;-90
2021/08/14 15:01:33;;;;;;;11.73;6.28;;;;;;;;;;6224292;23;20155;-92
2021/08/14 15:04:38;;;;;;;10.80;5.82;;;;;;;;;;6225291;23;20257;-91
2021/08/14 15:07:59;;;;;;;9.93;5.75;;;;;;;;;;6224515;23;20166;-91
2021/08/14 15:11:12;;;;;;;13.35;6.03;;;;;;;;;;6224972;23;20227;-91
2021/08/14 15:14:22;;;;;;;12.68;6.00;;;;;;;;;;6225423;23;20217;-90
2021/08/14 15:17:27;;;;;;;15.25;6.50;;;;;;;;;;6226634;23;20191;-91
2021/08/14 15:20:32;;;;;;;12.48;7.03;;;;;;;;;;6226717;23;20166;-91
2021/08/14 15:23:38;;;;;;;15.93;7.00;;;;;;;;;;6223069;23;20170;-90
2021/08/14 15:26:43;;;;;;;13.95;6.72;;;;;;;;;;6225059;23;20178;-93
2021/08/14 15:29:49;;;;;;;13.40;6.93;;;;;;;;;;6226136;23;20182;-91
2021/08/14 15:32:54;;;;;;;13.10;7.15;;;;;;;;;;6226278;23;20469;-91
2021/08/14 15:35:59;;;;;;;13.85;7.00;;;;;;;;;;6226627;23;20205;-89
2021/08/14 15:39:23;;;;;;;16.63;7.05;;;;;;;;;;6225673;23;20213;-92
2021/08/14 15:42:45;;;;;;;13.30;6.88;;;;;;;;;;6224319;23;20166;-91
2021/08/14 15:45:51;;;;;;;12.80;6.65;;;;;;;;;;6225242;23;20159;-90
2021/08/14 15:48:57;;;;;;;14.82;7.82;;;;;;;;;;6225354;23;20186;-90
2021/08/14 15:52:02;;;;;;;14.00;7.32;;;;;;;;;;6225662;23;20183;-90
2021/08/14 15:55:08;;;;;;;17.73;7.80;;;;;;;;;;6225537;23;20175;-90
2021/08/14 15:58:14;;;;;;;17.70;9.50;;;;;;;;;;6229109;23;20167;-90
2021/08/14 16:01:38;;;;;;;12.23;7.25;;;;;;;;;;6227251;23;20598;-91
2021/08/14 16:04:45;;;;;;;11.65;7.40;;;;;;;;;;6225659;23;20171;-90
2021/08/14 16:07:50;;;;;;;15.05;7.20;;;;;;;;;;6224450;23;20171;-90
2021/08/14 16:11:03;;;;;;;15.50;7.55;;;;;;;;;;6224494;23;20172;-91
2021/08/14 16:14:14;;;;;;;17.13;8.05;;;;;;;;;;6223781;23;20178;-91
2021/08/14 16:17:20;;;;;;;21.25;8.25;;;;;;;;;;6225392;23;20194;-89
2021/08/14 16:20:25;;;;;;;19.10;7.57;;;;;;;;;;6224184;23;20253;-89
2021/08/14 16:23:39;;;;;;;16.65;7.38;;;;;;;;;;6222193;23;20299;-90
2021/08/14 16:27:00;;;;;;;15.95;7.00;;;;;;;;;;6226156;23;20171;-87
2021/08/14 16:30:09;;;;;;;16.92;7.50;;;;;;;;;;6226043;23;20227;-90
2021/08/14 16:33:16;;;;;;;13.80;8.18;;;;;;;;;;6224449;23;20167;-91
2021/08/14 16:36:21;;;;;;;18.98;7.88;;;;;;;;;;6225363;23;20226;-90
2021/08/14 16:39:43;;;;;;;13.65;7.53;;;;;;;;;;6225290;23;20263;-90
2021/08/14 16:43:05;;;;;;;14.90;7.65;;;;;;;;;;6227229;23;20218;-91
2021/08/14 16:46:30;;;;;;;12.70;8.15;;;;;;;;;;6224156;23;20213;-90
2021/08/14 16:49:40;;;;;;;11.90;6.50;;;;;;;;;;6223591;23;20191;-91
2021/08/14 16:52:58;;;;;;;14.07;7.55;;;;;;;;;;6224694;23;20167;-90
2021/08/14 16:56:04;;;;;;;13.02;7.30;;;;;;;;;;6225105;23;20721;-91
2021/08/14 16:59:13;;;;;;;13.00;7.28;;;;;;;;;;6225285;23;20176;-90
2021/08/14 17:02:29;;;;;;;13.35;7.25;;;;;;;;;;6227700;23;20168;-91
2021/08/14 17:05:54;;;;;;;12.82;7.32;;;;;;;;;;6225000;23;20231;-91
2021/08/14 17:09:03;;;;;;;16.02;8.40;;;;;;;;;;6227067;23;20171;-89
2021/08/14 17:12:09;;;;;;;15.23;7.97;;;;;;;;;;6228291;23;20832;-90
2021/08/14 17:15:15;;;;;;;13.50;8.23;;;;;;;;;;6225573;23;20171;-91
2021/08/14 17:18:20;;;;;;;18.27;8.18;;;;;;;;;;6225270;23;20195;-89
2021/08/14 17:21:27;;;;;;;20.23;8.55;;;;;;;;;;6226819;23;20162;-89
2021/08/14 17:24:32;;;;;;;15.30;8.55;;;;;;;;;;6228177;23;20171;-89
2021/08/14 17:27:38;;;;;;;20.60;8.52;;;;;;;;;;6230651;23;20171;-92
2021/08/14 17:30:44;;;;;;;15.18;7.88;;;;;;;;;;6227009;23;20211;-90
2021/08/14 17:33:49;;;;;;;20.10;9.00;;;;;;;;;;6226980;23;20618;-90
2021/08/14 17:36:56;;;;;;;16.33;8.68;;;;;;;;;;6225914;23;20191;-89
2021/08/14 17:40:01;;;;;;;16.30;8.43;;;;;;;;;;6226883;23;20175;-89
2021/08/14 17:43:06;;;;;;;13.18;8.48;;;;;;;;;;6227520;23;20210;-90
2021/08/14 17:46:11;;;;;;;17.25;8.90;;;;;;;;;;6228012;23;20167;-90
2021/08/14 17:49:20;;;;;;;17.50;8.90;;;;;;;;;;6227362;23;20174;-88
2021/08/14 17:52:30;;;;;;;17.60;8.65;;;;;;;;;;6226086;23;20168;-90
2021/08/14 17:55:35;;;;;;;22.23;8.38;;;;;;;;;;6227414;23;20262;-91
2021/08/14 17:58:40;;;;;;;16.83;8.82;;;;;;;;;;6227934;23;20170;-90
2021/08/14 18:01:46;;;;;;;17.20;8.50;;;;;;;;;;6225661;23;20222;-89
2021/08/14 18:04:51;;;;;;;15.17;9.70;;;;;;;;;;6227849;23;20805;-89
2021/08/14 18:07:58;;;;;;;17.02;9.23;;;;;;;;;;6227915;23;20167;-90
2021/08/14 18:11:03;;;;;;;13.88;9.43;;;;;;;;;;6225872;23;20244;-89
2021/08/14 18:14:09;;;;;;;17.88;9.80;;;;;;;;;;6226713;23;20171;-88
2021/08/14 18:17:14;;;;;;;17.88;9.65;;;;;;;;;;6226297;23;20199;-88
2021/08/14 18:20:19;;;;;;;16.92;9.25;;;;;;;;;;6227730;23;20171;-88
2021/08/14 18:23:25;;;;;;;20.40;9.63;;;;;;;;;;6227387;23;20163;-89
2021/08/14 18:26:30;;;;;;;15.55;9.05;;;;;;;;;;6229007;23;20210;-89
2021/08/14 18:29:36;;;;;;;16.58;9.73;;;;;;;;;;6226090;23;20214;-89
2021/08/14 18:32:41;;;;;;;18.75;9.57;;;;;;;;;;6231242;23;20171;-88
2021/08/14 18:35:46;;;;;;;18.38;9.90;;;;;;;;;;6226239;23;20194;-89
2021/08/14 18:38:53;;;;;;;21.63;10.57;;;;;;;;;;6226415;23;20187;-88
2021/08/14 18:41:59;;;;;;;20.48;11.70;;;;;;;;;;6227945;23;20203;-90
2021/08/14 18:45:06;;;;;;;23.50;12.43;;;;;;;;;;6227385;23;20167;-89
2021/08/14 18:48:13;;;;;;;23.15;11.82;;;;;;;;;;6227154;23;20155;-88
2021/08/14 18:51:18;;;;;;;20.92;13.15;;;;;;;;;;6227016;23;20183;-89
2021/08/14 18:54:24;;;;;;;21.15;12.32;;;;;;;;;;6227731;23;20170;-89
2021/08/14 18:57:29;;;;;;;24.77;13.25;;;;;;;;;;6227031;23;20179;-89